sensor_id;sensor_type;location;lat;lon;timestamp;P1;durP1;ratioP1;P2;durP2;ratioP2
36233;SDS011;43467;50.890;5.982;2023-03-15T00:00:18;18.25;;;8.77;;
36233;SDS011;43467;50.890;5.982;2023-03-15T00:02:43;20.63;;;9.25;;
36233;SDS011;43467;50.890;5.982;2023-03-15T00:05:10;18.17;;;7.88;;
36233;SDS011;43467;50.890;5.982;2023-03-15T00:07:39;15.70;;;8.27;;
36233;SDS011;43467;50.890;5.982;2023-03-15T00:10:05;15.52;;;7.72;;
36233;SDS011;43467;50.890;5.982;2023-03-15T00:12:31;17.50;;;7.55;;
36233;SDS011;43467;50.890;5.982;2023-03-15T00:14:58;17.92;;;7.72;;
36233;SDS011;43467;50.890;5.982;2023-03-15T00:17:23;19.05;;;8.07;;
36233;SDS011;43467;50.890;5.982;2023-03-15T00:19:49;17.02;;;8.32;;
36233;SDS011;43467;50.890;5.982;2023-03-15T00:22:14;22.08;;;8.02;;
36233;SDS011;43467;50.890;5.982;2023-03-15T00:24:39;16.58;;;7.32;;
36233;SDS011;43467;50.890;5.982;2023-03-15T00:27:05;21.92;;;7.93;;
36233;SDS011;43467;50.890;5.982;2023-03-15T00:29:30;19.17;;;8.10;;
36233;SDS011;43467;50.890;5.982;2023-03-15T00:31:56;22.45;;;7.88;;
36233;SDS011;43467;50.890;5.982;2023-03-15T00:34:22;18.92;;;7.32;;
36233;SDS011;43467;50.890;5.982;2023-03-15T00:36:50;19.58;;;8.05;;
36233;SDS011;43467;50.890;5.982;2023-03-15T00:39:17;18.23;;;6.85;;
36233;SDS011;43467;50.890;5.982;2023-03-15T00:41:46;14.43;;;6.30;;
36233;SDS011;43467;50.890;5.982;2023-03-15T00:44:11;21.98;;;7.28;;
36233;SDS011;43467;50.890;5.982;2023-03-15T00:46:37;18.77;;;6.43;;
36233;SDS011;43467;50.890;5.982;2023-03-15T00:49:02;21.95;;;7.30;;
36233;SDS011;43467;50.890;5.982;2023-03-15T00:51:28;18.05;;;6.90;;
36233;SDS011;43467;50.890;5.982;2023-03-15T00:53:54;19.17;;;6.65;;
36233;SDS011;43467;50.890;5.982;2023-03-15T00:56:21;18.70;;;7.88;;
36233;SDS011;43467;50.890;5.982;2023-03-15T00:58:49;16.58;;;7.07;;
36233;SDS011;43467;50.890;5.982;2023-03-15T01:01:20;20.95;;;7.50;;
36233;SDS011;43467;50.890;5.982;2023-03-15T01:03:47;21.67;;;7.32;;
36233;SDS011;43467;50.890;5.982;2023-03-15T01:06:14;11.93;;;6.60;;
36233;SDS011;43467;50.890;5.982;2023-03-15T01:08:42;18.55;;;7.72;;
36233;SDS011;43467;50.890;5.982;2023-03-15T01:11:09;23.05;;;7.47;;
36233;SDS011;43467;50.890;5.982;2023-03-15T01:13:40;17.67;;;7.43;;
36233;SDS011;43467;50.890;5.982;2023-03-15T01:16:06;16.98;;;7.65;;
36233;SDS011;43467;50.890;5.982;2023-03-15T01:18:32;17.25;;;7.38;;
36233;SDS011;43467;50.890;5.982;2023-03-15T01:20:58;24.17;;;8.57;;
36233;SDS011;43467;50.890;5.982;2023-03-15T01:23:24;16.88;;;7.72;;
36233;SDS011;43467;50.890;5.982;2023-03-15T01:25:50;15.23;;;6.90;;
36233;SDS011;43467;50.890;5.982;2023-03-15T01:28:15;14.05;;;6.38;;
36233;SDS011;43467;50.890;5.982;2023-03-15T01:30:47;15.18;;;7.95;;
36233;SDS011;43467;50.890;5.982;2023-03-15T01:33:16;13.15;;;6.97;;
36233;SDS011;43467;50.890;5.982;2023-03-15T01:35:41;12.27;;;6.57;;
36233;SDS011;43467;50.890;5.982;2023-03-15T01:38:07;11.20;;;6.75;;
36233;SDS011;43467;50.890;5.982;2023-03-15T01:40:32;10.77;;;6.47;;
36233;SDS011;43467;50.890;5.982;2023-03-15T01:48:29;11.02;;;5.70;;
36233;SDS011;43467;50.890;5.982;2023-03-15T01:50:56;9.68;;;5.07;;
36233;SDS011;43467;50.890;5.982;2023-03-15T01:53:24;8.82;;;4.82;;
36233;SDS011;43467;50.890;5.982;2023-03-15T01:55:53;7.10;;;3.92;;
36233;SDS011;43467;50.890;5.982;2023-03-15T01:58:22;5.88;;;4.25;;
36233;SDS011;43467;50.890;5.982;2023-03-15T02:00:50;7.55;;;3.63;;
36233;SDS011;43467;50.890;5.982;2023-03-15T02:03:17;5.65;;;3.70;;
36233;SDS011;43467;50.890;5.982;2023-03-15T02:05:51;5.38;;;3.42;;
36233;SDS011;43467;50.890;5.982;2023-03-15T02:08:19;4.40;;;3.08;;
36233;SDS011;43467;50.890;5.982;2023-03-15T02:10:50;4.75;;;3.03;;
36233;SDS011;43467;50.890;5.982;2023-03-15T02:13:18;3.72;;;2.70;;
36233;SDS011;43467;50.890;5.982;2023-03-15T02:15:49;3.20;;;2.50;;
36233;SDS011;43467;50.890;5.982;2023-03-15T02:18:17;3.05;;;2.75;;
36233;SDS011;43467;50.890;5.982;2023-03-15T02:20:57;2.72;;;2.47;;
36233;SDS011;43467;50.890;5.982;2023-03-15T02:23:26;2.38;;;2.08;;
36233;SDS011;43467;50.890;5.982;2023-03-15T02:25:59;2.53;;;1.77;;
36233;SDS011;43467;50.890;5.982;2023-03-15T02:28:36;2.58;;;2.30;;
36233;SDS011;43467;50.890;5.982;2023-03-15T02:31:03;2.60;;;2.38;;
36233;SDS011;43467;50.890;5.982;2023-03-15T02:33:29;2.63;;;2.20;;
36233;SDS011;43467;50.890;5.982;2023-03-15T02:36:06;2.53;;;2.33;;
36233;SDS011;43467;50.890;5.982;2023-03-15T02:38:32;3.60;;;2.65;;
36233;SDS011;43467;50.890;5.982;2023-03-15T02:40:57;3.22;;;2.60;;
36233;SDS011;43467;50.890;5.982;2023-03-15T02:43:24;4.28;;;2.92;;
36233;SDS011;43467;50.890;5.982;2023-03-15T02:45:54;3.80;;;3.08;;
36233;SDS011;43467;50.890;5.982;2023-03-15T02:48:20;3.83;;;3.08;;
36233;SDS011;43467;50.890;5.982;2023-03-15T02:50:45;3.60;;;2.75;;
36233;SDS011;43467;50.890;5.982;2023-03-15T02:53:11;3.40;;;3.10;;
36233;SDS011;43467;50.890;5.982;2023-03-15T02:55:38;2.60;;;2.40;;
36233;SDS011;43467;50.890;5.982;2023-03-15T02:58:03;4.85;;;3.33;;
36233;SDS011;43467;50.890;5.982;2023-03-15T03:00:29;3.92;;;3.38;;
36233;SDS011;43467;50.890;5.982;2023-03-15T03:02:55;3.47;;;2.72;;
36233;SDS011;43467;50.890;5.982;2023-03-15T03:05:20;4.35;;;3.40;;
36233;SDS011;43467;50.890;5.982;2023-03-15T03:07:46;3.90;;;3.40;;
36233;SDS011;43467;50.890;5.982;2023-03-15T03:10:14;4.20;;;2.83;;
36233;SDS011;43467;50.890;5.982;2023-03-15T03:12:41;5.18;;;3.55;;
36233;SDS011;43467;50.890;5.982;2023-03-15T03:15:07;4.57;;;3.33;;
36233;SDS011;43467;50.890;5.982;2023-03-15T03:17:33;4.82;;;3.08;;
36233;SDS011;43467;50.890;5.982;2023-03-15T03:20:10;4.63;;;3.65;;
36233;SDS011;43467;50.890;5.982;2023-03-15T03:22:37;4.15;;;3.75;;
36233;SDS011;43467;50.890;5.982;2023-03-15T03:25:05;4.68;;;4.15;;
36233;SDS011;43467;50.890;5.982;2023-03-15T03:27:32;4.68;;;4.20;;
36233;SDS011;43467;50.890;5.982;2023-03-15T03:30:01;5.47;;;4.57;;
36233;SDS011;43467;50.890;5.982;2023-03-15T03:32:28;7.30;;;4.57;;
36233;SDS011;43467;50.890;5.982;2023-03-15T03:34:53;7.13;;;4.32;;
36233;SDS011;43467;50.890;5.982;2023-03-15T03:37:19;7.18;;;4.70;;
36233;SDS011;43467;50.890;5.982;2023-03-15T03:39:45;5.50;;;3.80;;
36233;SDS011;43467;50.890;5.982;2023-03-15T03:42:11;6.22;;;4.03;;
36233;SDS011;43467;50.890;5.982;2023-03-15T03:44:36;5.30;;;3.65;;
36233;SDS011;43467;50.890;5.982;2023-03-15T03:47:02;3.33;;;2.88;;
36233;SDS011;43467;50.890;5.982;2023-03-15T03:49:28;3.50;;;2.92;;
36233;SDS011;43467;50.890;5.982;2023-03-15T03:51:53;4.80;;;2.65;;
36233;SDS011;43467;50.890;5.982;2023-03-15T03:54:18;3.90;;;2.45;;
36233;SDS011;43467;50.890;5.982;2023-03-15T03:56:47;4.53;;;2.40;;
36233;SDS011;43467;50.890;5.982;2023-03-15T03:59:13;2.95;;;2.42;;
36233;SDS011;43467;50.890;5.982;2023-03-15T04:01:38;2.22;;;2.03;;
36233;SDS011;43467;50.890;5.982;2023-03-15T04:04:04;2.50;;;2.25;;
36233;SDS011;43467;50.890;5.982;2023-03-15T04:06:29;2.53;;;1.85;;
36233;SDS011;43467;50.890;5.982;2023-03-15T04:08:55;4.10;;;2.30;;
36233;SDS011;43467;50.890;5.982;2023-03-15T04:11:21;2.92;;;2.53;;
36233;SDS011;43467;50.890;5.982;2023-03-15T04:13:53;4.05;;;2.13;;
36233;SDS011;43467;50.890;5.982;2023-03-15T04:16:19;2.45;;;2.00;;
36233;SDS011;43467;50.890;5.982;2023-03-15T04:18:45;3.45;;;2.63;;
36233;SDS011;43467;50.890;5.982;2023-03-15T04:21:10;3.58;;;2.65;;
36233;SDS011;43467;50.890;5.982;2023-03-15T04:23:36;5.03;;;2.42;;
36233;SDS011;43467;50.890;5.982;2023-03-15T04:26:02;2.63;;;2.40;;
36233;SDS011;43467;50.890;5.982;2023-03-15T04:28:29;2.92;;;2.38;;
36233;SDS011;43467;50.890;5.982;2023-03-15T04:30:55;4.63;;;3.58;;
36233;SDS011;43467;50.890;5.982;2023-03-15T04:33:23;3.95;;;2.83;;
36233;SDS011;43467;50.890;5.982;2023-03-15T04:35:49;3.85;;;2.70;;
36233;SDS011;43467;50.890;5.982;2023-03-15T04:38:16;3.72;;;2.63;;
36233;SDS011;43467;50.890;5.982;2023-03-15T04:40:42;3.67;;;2.78;;
36233;SDS011;43467;50.890;5.982;2023-03-15T04:43:07;2.90;;;2.63;;
36233;SDS011;43467;50.890;5.982;2023-03-15T04:45:33;3.05;;;2.45;;
36233;SDS011;43467;50.890;5.982;2023-03-15T04:47:58;4.45;;;3.22;;
36233;SDS011;43467;50.890;5.982;2023-03-15T04:50:25;3.35;;;3.05;;
36233;SDS011;43467;50.890;5.982;2023-03-15T04:52:51;7.60;;;3.50;;
36233;SDS011;43467;50.890;5.982;2023-03-15T04:55:17;3.67;;;3.25;;
36233;SDS011;43467;50.890;5.982;2023-03-15T04:57:42;4.47;;;3.20;;
36233;SDS011;43467;50.890;5.982;2023-03-15T05:00:08;4.55;;;3.55;;
36233;SDS011;43467;50.890;5.982;2023-03-15T05:02:36;5.78;;;3.80;;
36233;SDS011;43467;50.890;5.982;2023-03-15T05:05:05;4.40;;;3.05;;
36233;SDS011;43467;50.890;5.982;2023-03-15T05:07:32;3.53;;;3.22;;
36233;SDS011;43467;50.890;5.982;2023-03-15T05:09:58;5.95;;;3.28;;
36233;SDS011;43467;50.890;5.982;2023-03-15T05:12:24;5.90;;;3.65;;
36233;SDS011;43467;50.890;5.982;2023-03-15T05:14:49;7.03;;;4.30;;
36233;SDS011;43467;50.890;5.982;2023-03-15T05:17:15;4.05;;;3.67;;
36233;SDS011;43467;50.890;5.982;2023-03-15T05:19:40;6.10;;;3.80;;
36233;SDS011;43467;50.890;5.982;2023-03-15T05:22:06;5.93;;;3.95;;
36233;SDS011;43467;50.890;5.982;2023-03-15T05:24:32;4.40;;;3.53;;
36233;SDS011;43467;50.890;5.982;2023-03-15T05:26:57;4.65;;;3.95;;
36233;SDS011;43467;50.890;5.982;2023-03-15T05:29:23;4.15;;;3.72;;
36233;SDS011;43467;50.890;5.982;2023-03-15T05:31:48;6.05;;;3.90;;
36233;SDS011;43467;50.890;5.982;2023-03-15T05:34:16;4.22;;;3.80;;
36233;SDS011;43467;50.890;5.982;2023-03-15T05:36:42;6.55;;;3.92;;
36233;SDS011;43467;50.890;5.982;2023-03-15T05:39:07;4.97;;;3.95;;
36233;SDS011;43467;50.890;5.982;2023-03-15T05:41:33;6.75;;;4.05;;
36233;SDS011;43467;50.890;5.982;2023-03-15T05:43:58;6.20;;;4.57;;
36233;SDS011;43467;50.890;5.982;2023-03-15T05:46:24;6.45;;;3.85;;
36233;SDS011;43467;50.890;5.982;2023-03-15T05:48:49;6.13;;;4.43;;
36233;SDS011;43467;50.890;5.982;2023-03-15T05:51:15;6.78;;;4.82;;
36233;SDS011;43467;50.890;5.982;2023-03-15T05:53:40;4.78;;;4.30;;
36233;SDS011;43467;50.890;5.982;2023-03-15T05:56:06;6.63;;;4.65;;
36233;SDS011;43467;50.890;5.982;2023-03-15T05:58:32;6.63;;;4.95;;
36233;SDS011;43467;50.890;5.982;2023-03-15T06:00:58;7.13;;;5.25;;
36233;SDS011;43467;50.890;5.982;2023-03-15T06:03:25;4.60;;;4.20;;
36233;SDS011;43467;50.890;5.982;2023-03-15T06:05:51;8.05;;;5.35;;
36233;SDS011;43467;50.890;5.982;2023-03-15T06:08:16;7.28;;;5.40;;
36233;SDS011;43467;50.890;5.982;2023-03-15T06:10:42;5.65;;;4.82;;
36233;SDS011;43467;50.890;5.982;2023-03-15T06:13:07;6.95;;;5.13;;
36233;SDS011;43467;50.890;5.982;2023-03-15T06:15:33;7.13;;;5.85;;
36233;SDS011;43467;50.890;5.982;2023-03-15T06:17:58;10.70;;;5.95;;
36233;SDS011;43467;50.890;5.982;2023-03-15T06:20:24;10.90;;;5.88;;
36233;SDS011;43467;50.890;5.982;2023-03-15T06:22:49;9.57;;;6.05;;
36233;SDS011;43467;50.890;5.982;2023-03-15T06:25:15;9.18;;;5.97;;
36233;SDS011;43467;50.890;5.982;2023-03-15T06:27:40;11.20;;;6.20;;
36233;SDS011;43467;50.890;5.982;2023-03-15T06:30:07;12.38;;;7.07;;
36233;SDS011;43467;50.890;5.982;2023-03-15T06:32:32;10.30;;;6.32;;
36233;SDS011;43467;50.890;5.982;2023-03-15T06:34:58;7.32;;;5.82;;
36233;SDS011;43467;50.890;5.982;2023-03-15T06:37:23;9.18;;;6.07;;
36233;SDS011;43467;50.890;5.982;2023-03-15T06:39:49;11.38;;;6.32;;
36233;SDS011;43467;50.890;5.982;2023-03-15T06:42:15;11.35;;;5.95;;
36233;SDS011;43467;50.890;5.982;2023-03-15T06:44:41;8.55;;;6.38;;
36233;SDS011;43467;50.890;5.982;2023-03-15T06:47:08;11.15;;;6.85;;
36233;SDS011;43467;50.890;5.982;2023-03-15T06:49:35;10.27;;;6.72;;
36233;SDS011;43467;50.890;5.982;2023-03-15T06:52:01;9.90;;;7.25;;
36233;SDS011;43467;50.890;5.982;2023-03-15T06:54:28;10.80;;;6.85;;
36233;SDS011;43467;50.890;5.982;2023-03-15T06:56:54;9.60;;;6.60;;
36233;SDS011;43467;50.890;5.982;2023-03-15T06:59:19;10.93;;;7.32;;
36233;SDS011;43467;50.890;5.982;2023-03-15T07:01:44;10.32;;;7.00;;
36233;SDS011;43467;50.890;5.982;2023-03-15T07:04:10;11.32;;;6.72;;
36233;SDS011;43467;50.890;5.982;2023-03-15T07:06:35;9.23;;;7.05;;
36233;SDS011;43467;50.890;5.982;2023-03-15T07:09:01;10.77;;;6.53;;
36233;SDS011;43467;50.890;5.982;2023-03-15T07:11:27;11.43;;;7.50;;
36233;SDS011;43467;50.890;5.982;2023-03-15T07:13:52;12.70;;;8.02;;
36233;SDS011;43467;50.890;5.982;2023-03-15T07:16:18;10.50;;;7.45;;
36233;SDS011;43467;50.890;5.982;2023-03-15T07:18:45;13.60;;;8.20;;
36233;SDS011;43467;50.890;5.982;2023-03-15T07:21:10;13.23;;;8.10;;
36233;SDS011;43467;50.890;5.982;2023-03-15T07:23:35;11.05;;;7.43;;
36233;SDS011;43467;50.890;5.982;2023-03-15T07:26:01;11.93;;;8.05;;
36233;SDS011;43467;50.890;5.982;2023-03-15T07:28:26;12.05;;;7.22;;
36233;SDS011;43467;50.890;5.982;2023-03-15T07:30:53;8.80;;;7.00;;
36233;SDS011;43467;50.890;5.982;2023-03-15T07:33:29;10.52;;;7.93;;
36233;SDS011;43467;50.890;5.982;2023-03-15T07:35:56;12.27;;;8.02;;
36233;SDS011;43467;50.890;5.982;2023-03-15T07:38:23;10.60;;;7.65;;
36233;SDS011;43467;50.890;5.982;2023-03-15T07:40:51;11.15;;;8.05;;
36233;SDS011;43467;50.890;5.982;2023-03-15T07:43:17;10.23;;;7.63;;
36233;SDS011;43467;50.890;5.982;2023-03-15T07:45:43;10.68;;;8.13;;
36233;SDS011;43467;50.890;5.982;2023-03-15T07:48:08;11.18;;;7.28;;
36233;SDS011;43467;50.890;5.982;2023-03-15T07:50:34;12.73;;;7.85;;
36233;SDS011;43467;50.890;5.982;2023-03-15T07:53:01;10.23;;;7.90;;
36233;SDS011;43467;50.890;5.982;2023-03-15T07:55:27;9.15;;;7.82;;
36233;SDS011;43467;50.890;5.982;2023-03-15T07:57:53;10.18;;;7.90;;
36233;SDS011;43467;50.890;5.982;2023-03-15T08:00:18;10.55;;;8.00;;
36233;SDS011;43467;50.890;5.982;2023-03-15T08:02:44;12.02;;;7.72;;
36233;SDS011;43467;50.890;5.982;2023-03-15T08:05:09;11.45;;;8.63;;
36233;SDS011;43467;50.890;5.982;2023-03-15T08:07:35;11.27;;;8.88;;
36233;SDS011;43467;50.890;5.982;2023-03-15T08:10:04;11.05;;;8.10;;
36233;SDS011;43467;50.890;5.982;2023-03-15T08:12:30;11.60;;;9.02;;
36233;SDS011;43467;50.890;5.982;2023-03-15T08:14:57;15.43;;;9.15;;
36233;SDS011;43467;50.890;5.982;2023-03-15T08:17:22;12.30;;;9.13;;
36233;SDS011;43467;50.890;5.982;2023-03-15T08:19:48;12.07;;;8.25;;
36233;SDS011;43467;50.890;5.982;2023-03-15T08:22:13;11.40;;;9.45;;
36233;SDS011;43467;50.890;5.982;2023-03-15T08:24:39;14.13;;;9.25;;
36233;SDS011;43467;50.890;5.982;2023-03-15T08:27:04;12.73;;;9.00;;
36233;SDS011;43467;50.890;5.982;2023-03-15T08:29:30;15.93;;;10.30;;
36233;SDS011;43467;50.890;5.982;2023-03-15T08:31:56;12.75;;;8.35;;
36233;SDS011;43467;50.890;5.982;2023-03-15T08:34:21;9.85;;;8.15;;
36233;SDS011;43467;50.890;5.982;2023-03-15T08:36:47;10.07;;;7.65;;
36233;SDS011;43467;50.890;5.982;2023-03-15T08:39:13;10.98;;;9.00;;
36233;SDS011;43467;50.890;5.982;2023-03-15T08:41:39;12.48;;;8.13;;
36233;SDS011;43467;50.890;5.982;2023-03-15T08:44:04;12.75;;;8.93;;
36233;SDS011;43467;50.890;5.982;2023-03-15T08:46:30;15.25;;;9.52;;
36233;SDS011;43467;50.890;5.982;2023-03-15T08:48:57;12.55;;;9.23;;
36233;SDS011;43467;50.890;5.982;2023-03-15T08:51:22;11.93;;;9.32;;
36233;SDS011;43467;50.890;5.982;2023-03-15T08:53:49;13.55;;;9.50;;
36233;SDS011;43467;50.890;5.982;2023-03-15T08:56:15;14.10;;;10.13;;
36233;SDS011;43467;50.890;5.982;2023-03-15T08:58:41;15.10;;;10.75;;
36233;SDS011;43467;50.890;5.982;2023-03-15T09:01:06;11.27;;;9.43;;
36233;SDS011;43467;50.890;5.982;2023-03-15T09:03:35;12.90;;;9.50;;
36233;SDS011;43467;50.890;5.982;2023-03-15T09:06:00;15.00;;;9.38;;
36233;SDS011;43467;50.890;5.982;2023-03-15T09:08:25;15.18;;;10.38;;
36233;SDS011;43467;50.890;5.982;2023-03-15T09:10:54;12.98;;;9.43;;
36233;SDS011;43467;50.890;5.982;2023-03-15T09:13:21;12.55;;;9.40;;
36233;SDS011;43467;50.890;5.982;2023-03-15T09:15:50;18.02;;;10.52;;
36233;SDS011;43467;50.890;5.982;2023-03-15T09:18:16;14.20;;;9.75;;
36233;SDS011;43467;50.890;5.982;2023-03-15T09:20:42;11.70;;;8.75;;
36233;SDS011;43467;50.890;5.982;2023-03-15T09:23:08;14.07;;;9.55;;
36233;SDS011;43467;50.890;5.982;2023-03-15T09:25:33;13.43;;;9.23;;
36233;SDS011;43467;50.890;5.982;2023-03-15T09:28:01;12.55;;;9.68;;
36233;SDS011;43467;50.890;5.982;2023-03-15T09:30:26;13.65;;;8.80;;
36233;SDS011;43467;50.890;5.982;2023-03-15T09:32:53;13.00;;;8.57;;
36233;SDS011;43467;50.890;5.982;2023-03-15T09:35:19;13.40;;;8.50;;
36233;SDS011;43467;50.890;5.982;2023-03-15T09:37:45;10.50;;;7.22;;
36233;SDS011;43467;50.890;5.982;2023-03-15T09:40:15;16.38;;;7.25;;
36233;SDS011;43467;50.890;5.982;2023-03-15T09:45:22;14.02;;;8.07;;
36233;SDS011;43467;50.890;5.982;2023-03-15T09:48:14;17.80;;;6.57;;
36233;SDS011;43467;50.890;5.982;2023-03-15T09:50:55;10.43;;;5.97;;
36233;SDS011;43467;50.890;5.982;2023-03-15T09:53:28;6.78;;;5.00;;
36233;SDS011;43467;50.890;5.982;2023-03-15T09:55:57;11.40;;;6.30;;
36233;SDS011;43467;50.890;5.982;2023-03-15T10:00:54;15.10;;;7.03;;
36233;SDS011;43467;50.890;5.982;2023-03-15T10:03:26;11.75;;;6.50;;
36233;SDS011;43467;50.890;5.982;2023-03-15T10:08:29;9.48;;;6.13;;
36233;SDS011;43467;50.890;5.982;2023-03-15T10:16:38;10.68;;;5.63;;
36233;SDS011;43467;50.890;5.982;2023-03-15T10:19:44;11.35;;;5.13;;
36233;SDS011;43467;50.890;5.982;2023-03-15T10:24:39;11.52;;;4.60;;
36233;SDS011;43467;50.890;5.982;2023-03-15T10:27:19;6.60;;;3.70;;
36233;SDS011;43467;50.890;5.982;2023-03-15T10:30:00;8.07;;;3.97;;
36233;SDS011;43467;50.890;5.982;2023-03-15T10:32:37;15.50;;;5.07;;
36233;SDS011;43467;50.890;5.982;2023-03-15T10:35:11;9.63;;;3.40;;
36233;SDS011;43467;50.890;5.982;2023-03-15T10:37:39;10.55;;;4.03;;
36233;SDS011;43467;50.890;5.982;2023-03-15T10:40:06;11.23;;;3.92;;
36233;SDS011;43467;50.890;5.982;2023-03-15T10:42:39;6.43;;;3.40;;
36233;SDS011;43467;50.890;5.982;2023-03-15T10:45:22;11.20;;;3.95;;
36233;SDS011;43467;50.890;5.982;2023-03-15T10:47:49;9.65;;;3.65;;
36233;SDS011;43467;50.890;5.982;2023-03-15T10:50:28;9.40;;;3.65;;
36233;SDS011;43467;50.890;5.982;2023-03-15T10:52:56;7.10;;;3.70;;
36233;SDS011;43467;50.890;5.982;2023-03-15T10:55:30;5.95;;;3.63;;
36233;SDS011;43467;50.890;5.982;2023-03-15T10:58:11;8.43;;;3.33;;
36233;SDS011;43467;50.890;5.982;2023-03-15T11:01:01;7.88;;;3.90;;
36233;SDS011;43467;50.890;5.982;2023-03-15T11:03:33;7.30;;;3.78;;
36233;SDS011;43467;50.890;5.982;2023-03-15T11:06:00;6.78;;;3.28;;
36233;SDS011;43467;50.890;5.982;2023-03-15T11:08:39;5.13;;;2.78;;
36233;SDS011;43467;50.890;5.982;2023-03-15T11:11:06;12.02;;;3.75;;
36233;SDS011;43467;50.890;5.982;2023-03-15T11:13:33;6.43;;;3.50;;
36233;SDS011;43467;50.890;5.982;2023-03-15T11:16:01;6.20;;;2.85;;
36233;SDS011;43467;50.890;5.982;2023-03-15T11:18:46;7.80;;;3.55;;
36233;SDS011;43467;50.890;5.982;2023-03-15T11:21:19;5.78;;;2.75;;
36233;SDS011;43467;50.890;5.982;2023-03-15T11:23:49;8.05;;;3.10;;
36233;SDS011;43467;50.890;5.982;2023-03-15T11:26:22;8.75;;;3.70;;
36233;SDS011;43467;50.890;5.982;2023-03-15T11:28:51;9.60;;;3.83;;
36233;SDS011;43467;50.890;5.982;2023-03-15T11:31:24;4.97;;;3.33;;
36233;SDS011;43467;50.890;5.982;2023-03-15T11:33:53;6.40;;;3.20;;
36233;SDS011;43467;50.890;5.982;2023-03-15T11:36:23;5.32;;;3.13;;
36233;SDS011;43467;50.890;5.982;2023-03-15T11:38:52;6.03;;;2.63;;
36233;SDS011;43467;50.890;5.982;2023-03-15T11:41:38;6.15;;;2.60;;
36233;SDS011;43467;50.890;5.982;2023-03-15T11:44:24;11.15;;;3.30;;
36233;SDS011;43467;50.890;5.982;2023-03-15T11:47:02;9.02;;;3.25;;
36233;SDS011;43467;50.890;5.982;2023-03-15T11:52:17;7.40;;;2.67;;
36233;SDS011;43467;50.890;5.982;2023-03-15T11:54:49;8.45;;;2.85;;
36233;SDS011;43467;50.890;5.982;2023-03-15T11:59:57;7.25;;;3.00;;
36233;SDS011;43467;50.890;5.982;2023-03-15T12:03:21;6.70;;;2.55;;
36233;SDS011;43467;50.890;5.982;2023-03-15T12:05:50;5.30;;;2.38;;
36233;SDS011;43467;50.890;5.982;2023-03-15T12:08:44;5.38;;;2.33;;
36233;SDS011;43467;50.890;5.982;2023-03-15T12:14:04;8.80;;;2.45;;
36233;SDS011;43467;50.890;5.982;2023-03-15T12:16:45;5.43;;;2.28;;
36233;SDS011;43467;50.890;5.982;2023-03-15T12:19:18;5.13;;;2.80;;
36233;SDS011;43467;50.890;5.982;2023-03-15T12:21:51;5.82;;;2.22;;
36233;SDS011;43467;50.890;5.982;2023-03-15T12:24:24;5.03;;;2.50;;
36233;SDS011;43467;50.890;5.982;2023-03-15T12:29:26;3.88;;;1.83;;
36233;SDS011;43467;50.890;5.982;2023-03-15T12:31:58;10.75;;;2.33;;
36233;SDS011;43467;50.890;5.982;2023-03-15T12:35:15;6.60;;;2.05;;
36233;SDS011;43467;50.890;5.982;2023-03-15T12:59:02;7.72;;;2.28;;
36233;SDS011;43467;50.890;5.982;2023-03-15T13:01:34;3.72;;;1.95;;
36233;SDS011;43467;50.890;5.982;2023-03-15T13:04:00;6.28;;;1.92;;
36233;SDS011;43467;50.890;5.982;2023-03-15T13:06:31;2.75;;;1.67;;
36233;SDS011;43467;50.890;5.982;2023-03-15T13:12:23;4.28;;;1.83;;
36233;SDS011;43467;50.890;5.982;2023-03-15T13:15:08;3.35;;;1.70;;
36233;SDS011;43467;50.890;5.982;2023-03-15T13:20:12;5.57;;;2.15;;
36233;SDS011;43467;50.890;5.982;2023-03-15T13:25:41;5.45;;;2.25;;
36233;SDS011;43467;50.890;5.982;2023-03-15T13:30:47;5.50;;;1.90;;
36233;SDS011;43467;50.890;5.982;2023-03-15T13:35:56;6.57;;;1.63;;
36233;SDS011;43467;50.890;5.982;2023-03-15T13:40:56;4.43;;;1.60;;
36233;SDS011;43467;50.890;5.982;2023-03-15T13:43:28;3.20;;;1.42;;
36233;SDS011;43467;50.890;5.982;2023-03-15T13:45:59;2.55;;;1.67;;
36233;SDS011;43467;50.890;5.982;2023-03-15T13:48:25;7.63;;;1.77;;
36233;SDS011;43467;50.890;5.982;2023-03-15T13:50:55;2.58;;;1.65;;
36233;SDS011;43467;50.890;5.982;2023-03-15T13:53:30;4.32;;;1.40;;
36233;SDS011;43467;50.890;5.982;2023-03-15T13:55:58;2.92;;;1.70;;
36233;SDS011;43467;50.890;5.982;2023-03-15T13:58:24;4.70;;;1.85;;
36233;SDS011;43467;50.890;5.982;2023-03-15T14:00:54;4.53;;;1.98;;
36233;SDS011;43467;50.890;5.982;2023-03-15T14:03:23;7.18;;;1.90;;
36233;SDS011;43467;50.890;5.982;2023-03-15T14:05:49;5.00;;;1.65;;
36233;SDS011;43467;50.890;5.982;2023-03-15T14:08:20;8.35;;;2.40;;
36233;SDS011;43467;50.890;5.982;2023-03-15T14:11:30;4.30;;;1.98;;
36233;SDS011;43467;50.890;5.982;2023-03-15T14:13:59;4.03;;;1.98;;
36233;SDS011;43467;50.890;5.982;2023-03-15T14:19:14;6.70;;;1.98;;
36233;SDS011;43467;50.890;5.982;2023-03-15T14:21:41;2.78;;;1.52;;
36233;SDS011;43467;50.890;5.982;2023-03-15T14:24:16;3.35;;;1.88;;
36233;SDS011;43467;50.890;5.982;2023-03-15T14:29:26;4.38;;;1.70;;
36233;SDS011;43467;50.890;5.982;2023-03-15T14:32:00;2.67;;;1.67;;
36233;SDS011;43467;50.890;5.982;2023-03-15T14:34:55;6.68;;;2.22;;
36233;SDS011;43467;50.890;5.982;2023-03-15T14:37:31;6.03;;;2.30;;
36233;SDS011;43467;50.890;5.982;2023-03-15T14:40:20;5.43;;;2.40;;
36233;SDS011;43467;50.890;5.982;2023-03-15T14:42:52;2.65;;;1.80;;
36233;SDS011;43467;50.890;5.982;2023-03-15T14:45:18;3.88;;;1.65;;
36233;SDS011;43467;50.890;5.982;2023-03-15T14:47:56;5.45;;;1.90;;
36233;SDS011;43467;50.890;5.982;2023-03-15T14:50:27;5.90;;;2.10;;
36233;SDS011;43467;50.890;5.982;2023-03-15T14:52:56;5.05;;;2.20;;
36233;SDS011;43467;50.890;5.982;2023-03-15T14:55:23;4.57;;;2.03;;
36233;SDS011;43467;50.890;5.982;2023-03-15T14:57:53;4.15;;;2.53;;
36233;SDS011;43467;50.890;5.982;2023-03-15T15:00:18;4.43;;;1.65;;
36233;SDS011;43467;50.890;5.982;2023-03-15T15:02:45;5.43;;;2.05;;
36233;SDS011;43467;50.890;5.982;2023-03-15T15:05:22;2.75;;;1.63;;
36233;SDS011;43467;50.890;5.982;2023-03-15T15:07:51;7.30;;;1.90;;
36233;SDS011;43467;50.890;5.982;2023-03-15T15:10:21;2.65;;;1.70;;
36233;SDS011;43467;50.890;5.982;2023-03-15T15:12:48;2.83;;;1.85;;
36233;SDS011;43467;50.890;5.982;2023-03-15T15:15:14;5.20;;;2.20;;
36233;SDS011;43467;50.890;5.982;2023-03-15T15:17:41;9.75;;;2.30;;
36233;SDS011;43467;50.890;5.982;2023-03-15T15:20:07;4.72;;;2.45;;
36233;SDS011;43467;50.890;5.982;2023-03-15T15:22:35;6.50;;;2.35;;
36233;SDS011;43467;50.890;5.982;2023-03-15T15:25:01;5.25;;;2.10;;
36233;SDS011;43467;50.890;5.982;2023-03-15T15:27:29;4.15;;;1.70;;
36233;SDS011;43467;50.890;5.982;2023-03-15T15:29:54;2.55;;;1.35;;
36233;SDS011;43467;50.890;5.982;2023-03-15T15:32:19;2.75;;;1.50;;
36233;SDS011;43467;50.890;5.982;2023-03-15T15:34:45;4.20;;;1.60;;
36233;SDS011;43467;50.890;5.982;2023-03-15T15:37:10;4.43;;;1.67;;
36233;SDS011;43467;50.890;5.982;2023-03-15T15:39:35;7.22;;;1.80;;
36233;SDS011;43467;50.890;5.982;2023-03-15T15:42:01;5.63;;;2.42;;
36233;SDS011;43467;50.890;5.982;2023-03-15T15:44:26;4.88;;;2.05;;
36233;SDS011;43467;50.890;5.982;2023-03-15T15:46:52;4.43;;;1.60;;
36233;SDS011;43467;50.890;5.982;2023-03-15T15:49:17;4.40;;;2.22;;
36233;SDS011;43467;50.890;5.982;2023-03-15T15:51:44;4.55;;;2.03;;
36233;SDS011;43467;50.890;5.982;2023-03-15T15:54:15;3.63;;;2.00;;
36233;SDS011;43467;50.890;5.982;2023-03-15T15:57:01;3.80;;;1.90;;
36233;SDS011;43467;50.890;5.982;2023-03-15T15:59:26;4.45;;;2.05;;
36233;SDS011;43467;50.890;5.982;2023-03-15T16:01:52;3.47;;;2.28;;
36233;SDS011;43467;50.890;5.982;2023-03-15T16:04:19;2.90;;;1.90;;
36233;SDS011;43467;50.890;5.982;2023-03-15T16:06:47;3.78;;;2.20;;